createdAt,value
2022-09-01T00:01:22.201Z,18.78
2022-09-01T00:03:49.742Z,18.72
2022-09-01T00:06:22.500Z,18.62
2022-09-01T00:08:51.701Z,18.60
2022-09-01T00:11:19.076Z,18.54
2022-09-01T00:13:46.550Z,18.36
2022-09-01T00:16:16.615Z,18.45
2022-09-01T00:18:49.666Z,18.26
2022-09-01T00:21:18.740Z,18.22
2022-09-01T00:23:45.581Z,17.99
2022-09-01T00:26:12.835Z,18.07
2022-09-01T00:28:40.053Z,18.02
2022-09-01T00:31:08.038Z,17.92
2022-09-01T00:33:35.648Z,17.96
2022-09-01T00:36:02.854Z,17.69
2022-09-01T00:38:29.713Z,17.52
2022-09-01T00:40:56.609Z,17.54
2022-09-01T00:43:44.582Z,17.64
2022-09-01T00:46:14.853Z,17.57
2022-09-01T00:48:46.163Z,17.47
2022-09-01T00:51:14.233Z,17.51
2022-09-01T00:53:42.064Z,17.51
2022-09-01T00:56:09.582Z,17.59
2022-09-01T00:58:37.344Z,17.53
2022-09-01T01:01:06.877Z,17.49
2022-09-01T01:03:34.529Z,17.48
2022-09-01T01:06:05.045Z,17.53
2022-09-01T01:08:36.257Z,17.49
2022-09-01T01:11:18.013Z,17.42
2022-09-01T01:13:49.457Z,17.47
2022-09-01T01:16:16.445Z,17.38
2022-09-01T01:18:43.445Z,17.37
2022-09-01T01:21:37.033Z,17.44
2022-09-01T01:24:24.237Z,17.31
2022-09-01T01:26:51.927Z,17.38
2022-09-01T01:29:19.721Z,17.23
2022-09-01T01:31:52.223Z,17.33
2022-09-01T01:34:19.816Z,17.32
2022-09-01T01:36:48.024Z,17.30
2022-09-01T01:39:18.590Z,17.31
2022-09-01T01:41:48.920Z,17.26
2022-09-01T01:44:22.615Z,17.36
2022-09-01T01:46:52.024Z,17.36
2022-09-01T01:49:23.142Z,17.32
2022-09-01T01:51:57.927Z,17.37
2022-09-01T01:54:27.020Z,17.16
2022-09-01T01:56:58.115Z,17.12
2022-09-01T01:59:26.517Z,17.00
2022-09-01T02:01:53.449Z,17.21
2022-09-01T02:04:21.115Z,17.16
2022-09-01T02:06:49.038Z,17.17
2022-09-01T02:09:18.494Z,17.19
2022-09-01T02:11:45.651Z,17.30
2022-09-01T02:14:13.585Z,17.32
2022-09-01T02:16:41.103Z,17.28
2022-09-01T02:19:10.045Z,17.36
2022-09-01T02:21:37.101Z,17.27
2022-09-01T02:24:06.115Z,17.17
2022-09-01T02:26:42.998Z,17.16
2022-09-01T02:29:18.003Z,17.21
2022-09-01T02:31:46.485Z,17.27
2022-09-01T02:34:16.396Z,17.10
2022-09-01T02:36:47.963Z,17.17
2022-09-01T02:39:23.456Z,17.07
2022-09-01T02:41:51.450Z,16.76
2022-09-01T02:44:20.027Z,16.86
2022-09-01T02:46:47.446Z,16.69
2022-09-01T02:49:25.497Z,16.71
2022-09-01T02:51:54.056Z,16.46
2022-09-01T02:54:22.856Z,16.50
2022-09-01T02:56:49.950Z,16.55
2022-09-01T02:59:18.456Z,16.41
2022-09-01T03:01:46.922Z,16.61
2022-09-01T03:04:14.469Z,16.34
2022-09-01T03:06:41.647Z,16.29
2022-09-01T03:09:11.225Z,16.12
2022-09-01T03:11:40.181Z,16.15
2022-09-01T03:14:08.147Z,15.95
2022-09-01T03:16:36.378Z,16.06
2022-09-01T03:19:04.008Z,16.11
2022-09-01T03:21:34.141Z,16.07
2022-09-01T03:24:03.974Z,16.00
2022-09-01T03:26:31.504Z,16.10
2022-09-01T03:28:59.198Z,16.24
2022-09-01T03:31:31.187Z,16.27
2022-09-01T03:33:59.644Z,16.35
2022-09-01T03:36:28.553Z,16.21
2022-09-01T03:38:55.911Z,16.38
2022-09-01T03:41:25.278Z,16.24
2022-09-01T03:43:58.116Z,16.44
2022-09-01T03:46:26.760Z,16.34
2022-09-01T03:48:56.109Z,16.44
2022-09-01T03:51:24.218Z,16.33
2022-09-01T03:53:55.054Z,16.39
2022-09-01T03:56:27.495Z,16.34
2022-09-01T03:58:56.361Z,16.29
2022-09-01T04:01:25.426Z,16.13
2022-09-01T04:03:53.013Z,16.28
2022-09-01T04:06:23.980Z,16.32
2022-09-01T04:08:56.826Z,16.21
2022-09-01T04:11:24.306Z,16.33
2022-09-01T04:13:52.362Z,16.35
2022-09-01T04:16:42.841Z,16.41
2022-09-01T04:19:20.629Z,16.32
2022-09-01T04:21:50.650Z,16.39
2022-09-01T04:24:19.185Z,16.39
2022-09-01T04:26:48.929Z,16.41
2022-09-01T04:29:18.801Z,16.42
2022-09-01T04:31:48.823Z,16.32
2022-09-01T04:34:16.361Z,16.21
2022-09-01T04:36:45.745Z,16.02
2022-09-01T04:39:15.125Z,16.01
2022-09-01T04:41:46.073Z,15.95
2022-09-01T04:44:15.764Z,16.11
2022-09-01T04:46:46.471Z,16.19
2022-09-01T04:49:21.893Z,16.20
2022-09-01T04:51:53.672Z,16.19
2022-09-01T04:54:23.470Z,16.08
2022-09-01T04:56:52.837Z,15.95
2022-09-01T04:59:22.608Z,15.98
2022-09-01T05:01:55.655Z,15.94
2022-09-01T05:04:28.369Z,15.95
2022-09-01T05:07:01.276Z,15.99
2022-09-01T05:09:29.950Z,15.93
2022-09-01T05:11:57.784Z,15.94
2022-09-01T05:14:25.674Z,16.02
2022-09-01T05:16:58.873Z,15.93
2022-09-01T05:19:29.035Z,15.96
2022-09-01T05:21:57.984Z,15.83
2022-09-01T05:24:30.407Z,15.94
2022-09-01T05:27:00.570Z,15.86
2022-09-01T05:29:28.823Z,15.89
2022-09-01T05:31:56.271Z,15.94
2022-09-01T05:34:27.085Z,16.03
2022-09-01T05:36:57.989Z,16.04
2022-09-01T05:39:27.287Z,15.87
2022-09-01T05:41:55.804Z,15.94
2022-09-01T05:44:23.006Z,16.06
2022-09-01T05:46:50.722Z,16.08
2022-09-01T05:49:18.858Z,16.12
2022-09-01T05:51:51.867Z,16.22
2022-09-01T05:54:23.172Z,16.25
2022-09-01T05:56:50.402Z,16.33
2022-09-01T05:59:26.250Z,16.35
2022-09-01T06:01:54.775Z,16.51
2022-09-01T06:04:23.295Z,16.59
2022-09-01T06:07:08.474Z,16.66
2022-09-01T06:09:43.350Z,16.67
2022-09-01T06:12:17.831Z,16.49
2022-09-01T06:14:47.241Z,16.31
2022-09-01T06:17:16.507Z,16.44
2022-09-01T06:19:44.151Z,16.56
2022-09-01T06:22:11.595Z,16.70
2022-09-01T06:24:44.967Z,16.78
2022-09-01T06:27:18.060Z,16.74
2022-09-01T06:29:45.518Z,16.86
2022-09-01T06:32:13.246Z,16.91
2022-09-01T06:34:42.827Z,16.74
2022-09-01T06:37:13.456Z,16.77
2022-09-01T06:39:40.395Z,16.94
2022-09-01T06:42:09.519Z,16.81
2022-09-01T06:44:40.786Z,16.74
2022-09-01T06:47:09.151Z,16.55
2022-09-01T06:49:36.809Z,16.64
2022-09-01T06:52:04.867Z,16.67
2022-09-01T06:54:35.702Z,16.82
2022-09-01T06:59:52.348Z,16.74
2022-09-01T07:02:26.645Z,16.88
2022-09-01T07:04:54.681Z,16.91
2022-09-01T07:10:25.704Z,16.77
2022-09-01T07:13:11.434Z,16.57
2022-09-01T07:18:31.827Z,16.96
2022-09-01T07:24:07.747Z,16.84
2022-09-01T07:26:35.818Z,16.57
2022-09-01T07:29:06.339Z,16.59
2022-09-01T07:34:41.919Z,16.78
2022-09-01T07:42:31.770Z,16.75
2022-09-01T07:45:47.214Z,16.83
2022-09-01T07:48:36.674Z,16.90
2022-09-01T07:51:35.613Z,17.08
2022-09-01T07:53:54.758Z,17.30
2022-09-01T07:56:23.449Z,17.52
2022-09-01T07:58:52.134Z,17.67
2022-09-01T08:01:22.229Z,17.83
2022-09-01T08:03:52.235Z,17.86
2022-09-01T08:06:21.138Z,17.98
2022-09-01T08:08:49.871Z,17.98
2022-09-01T08:11:40.042Z,18.25
2022-09-01T08:14:11.490Z,18.34
2022-09-01T08:16:40.096Z,18.33
2022-09-01T08:19:19.027Z,18.48
2022-09-01T08:21:45.926Z,18.66
2022-09-01T08:24:12.858Z,18.52
2022-09-01T08:26:40.227Z,18.66
2022-09-01T08:29:07.195Z,18.89
2022-09-01T08:31:34.134Z,18.99
2022-09-01T08:34:01.164Z,19.12
2022-09-01T08:36:28.020Z,19.32
2022-09-01T08:38:55.034Z,19.06
2022-09-01T08:41:47.248Z,19.29
2022-09-01T08:44:51.626Z,19.38
2022-09-01T08:47:28.755Z,19.49
2022-09-01T08:50:00.256Z,19.75
2022-09-01T08:52:29.659Z,19.63
2022-09-01T08:55:06.283Z,19.55
2022-09-01T08:57:38.003Z,19.78
2022-09-01T09:00:09.994Z,19.70
2022-09-01T09:02:51.480Z,19.65
2022-09-01T09:05:42.670Z,19.80
2022-09-01T09:08:34.069Z,19.62
2022-09-01T09:11:06.900Z,19.78
2022-09-01T09:14:14.650Z,19.70
2022-09-01T09:16:43.807Z,19.69
2022-09-01T09:19:16.354Z,20.06
2022-09-01T09:21:45.952Z,19.98
2022-09-01T09:24:47.366Z,20.17
2022-09-01T09:27:27.688Z,20.25
2022-09-01T09:30:09.544Z,20.24
2022-09-01T09:35:54.448Z,20.32
2022-09-01T09:38:29.295Z,20.19
2022-09-01T09:41:16.121Z,20.57
2022-09-01T09:43:49.306Z,20.46
2022-09-01T09:46:36.227Z,20.39
2022-09-01T09:49:35.967Z,20.39
2022-09-01T09:52:16.524Z,20.66
2022-09-01T09:55:00.516Z,20.69
2022-09-01T09:57:28.627Z,20.39
2022-09-01T10:00:24.052Z,20.60
2022-09-01T10:02:57.024Z,20.94
2022-09-01T10:05:38.525Z,20.70
2022-09-01T10:08:09.568Z,21.40
2022-09-01T10:13:20.998Z,21.37
2022-09-01T10:15:53.974Z,21.40
2022-09-01T10:18:33.304Z,21.65
2022-09-01T10:21:14.073Z,21.43
2022-09-01T10:23:41.861Z,21.83
2022-09-01T10:26:24.447Z,21.90
2022-09-01T10:29:15.697Z,21.52
2022-09-01T10:31:43.376Z,21.52
2022-09-01T10:34:15.258Z,21.91
2022-09-01T10:36:47.030Z,22.20
2022-09-01T10:39:16.470Z,21.98
2022-09-01T10:41:43.987Z,21.95
2022-09-01T10:44:34.349Z,22.00
2022-09-01T10:47:06.445Z,21.78
2022-09-01T10:49:35.112Z,21.73
2022-09-01T10:52:25.828Z,22.25
2022-09-01T10:54:57.947Z,22.40
2022-09-01T10:57:45.933Z,21.84
2022-09-01T11:00:36.675Z,21.77
2022-09-01T11:06:13.008Z,21.87
2022-09-01T11:08:50.318Z,22.09
2022-09-01T11:11:30.230Z,21.76
2022-09-01T11:14:01.240Z,21.82
2022-09-01T11:16:50.094Z,22.13
2022-09-01T11:19:27.494Z,21.99
2022-09-01T11:22:22.398Z,22.25
2022-09-01T11:25:11.915Z,22.43
2022-09-01T11:27:48.330Z,22.77
2022-09-01T11:30:21.147Z,22.55
2022-09-01T11:32:52.877Z,22.53
2022-09-01T11:35:22.126Z,22.52
2022-09-01T11:37:51.385Z,22.50
2022-09-01T11:40:32.520Z,22.80
2022-09-01T11:43:05.552Z,22.54
2022-09-01T11:46:09.986Z,22.30
2022-09-01T11:48:39.234Z,22.49
2022-09-01T11:51:06.273Z,22.57
2022-09-01T11:53:33.268Z,22.65
2022-09-01T11:56:17.128Z,22.52
2022-09-01T11:58:44.520Z,22.64
2022-09-01T12:01:23.929Z,22.44
2022-09-01T12:03:53.184Z,22.82
2022-09-01T12:06:29.546Z,23.15
2022-09-01T12:09:02.359Z,23.25
2022-09-01T12:11:34.535Z,23.19
2022-09-01T12:14:11.158Z,23.19
2022-09-01T12:16:42.307Z,23.40
2022-09-01T12:19:23.603Z,23.59
2022-09-01T12:22:07.623Z,23.79
2022-09-01T12:24:35.861Z,23.54
2022-09-01T12:27:04.956Z,23.44
2022-09-01T12:29:33.191Z,23.39
2022-09-01T12:32:00.664Z,22.98
2022-09-01T12:34:33.646Z,23.15
2022-09-01T12:37:24.794Z,23.04
2022-09-01T12:39:54.921Z,23.10
2022-09-01T12:42:21.722Z,23.12
2022-09-01T12:44:53.741Z,22.97
2022-09-01T12:47:36.126Z,23.23
2022-09-01T12:50:09.552Z,23.30
2022-09-01T12:52:45.850Z,23.28
2022-09-01T12:58:09.594Z,23.82
2022-09-01T13:00:57.090Z,23.80
2022-09-01T13:03:25.896Z,23.98
2022-09-01T13:05:54.512Z,23.64
2022-09-01T13:08:27.159Z,23.63
2022-09-01T13:11:06.563Z,23.47
2022-09-01T13:13:35.373Z,23.97
2022-09-01T13:16:13.039Z,23.87
2022-09-01T13:21:30.458Z,24.51
2022-09-01T13:23:58.864Z,24.54
2022-09-01T13:26:26.376Z,24.40
2022-09-01T13:28:54.031Z,23.97
2022-09-01T13:31:29.183Z,24.11
2022-09-01T13:34:22.167Z,23.62
2022-09-01T13:36:46.998Z,23.62
2022-09-01T13:39:15.968Z,24.13
2022-09-01T13:41:43.195Z,23.96
2022-09-01T13:44:11.106Z,24.19
2022-09-01T13:46:59.046Z,24.11
2022-09-01T13:52:13.242Z,24.06
2022-09-01T13:54:40.265Z,24.43
2022-09-01T13:57:07.471Z,24.39
2022-09-01T13:59:34.755Z,24.45
2022-09-01T14:02:01.825Z,24.59
2022-09-01T14:04:28.985Z,24.46
2022-09-01T14:06:56.287Z,24.61
2022-09-01T14:09:23.321Z,24.41
2022-09-01T14:12:01.080Z,24.20
2022-09-01T14:17:27.114Z,24.42
2022-09-01T14:19:53.947Z,24.42
2022-09-01T14:22:21.167Z,24.32
2022-09-01T14:24:48.003Z,24.08
2022-09-01T14:27:14.912Z,24.20
2022-09-01T14:32:08.074Z,24.20
2022-09-01T14:34:35.677Z,24.37
2022-09-01T14:37:04.172Z,24.39
2022-09-01T14:39:31.039Z,24.33
2022-09-01T14:41:57.929Z,24.19
2022-09-01T14:44:24.837Z,24.10
2022-09-01T14:46:53.790Z,24.05
2022-09-01T14:49:22.467Z,23.99
2022-09-01T14:54:42.529Z,23.71
2022-09-01T14:59:56.530Z,23.63
2022-09-01T15:02:25.050Z,23.48
2022-09-01T15:04:54.465Z,23.60
2022-09-01T15:07:22.826Z,23.58
2022-09-01T15:09:51.828Z,23.56
2022-09-01T15:12:19.956Z,23.44
2022-09-01T15:14:46.897Z,23.26
2022-09-01T15:17:13.808Z,23.32
2022-09-01T15:19:40.873Z,23.33
2022-09-01T15:22:10.862Z,23.28
2022-09-01T15:24:37.846Z,23.24
2022-09-01T15:27:06.586Z,23.19
2022-09-01T15:29:34.311Z,23.13
2022-09-01T15:32:02.036Z,23.10
2022-09-01T15:34:28.987Z,23.05
2022-09-01T15:36:55.870Z,23.00
2022-09-01T15:39:22.853Z,22.95
2022-09-01T15:41:49.798Z,22.92
2022-09-01T15:44:16.752Z,22.90
2022-09-01T15:46:45.779Z,22.84
2022-09-01T15:49:13.009Z,22.87
2022-09-01T15:51:41.663Z,22.86
2022-09-01T15:54:12.883Z,22.81
2022-09-01T15:56:40.143Z,22.83
2022-09-01T15:59:07.969Z,22.84
2022-09-01T16:01:39.082Z,22.81
2022-09-01T16:04:07.819Z,22.74
2022-09-01T16:06:35.280Z,22.70
2022-09-01T16:09:02.285Z,22.68
2022-09-01T16:11:29.563Z,22.66
2022-09-01T16:13:57.043Z,22.59
2022-09-01T16:16:40.939Z,22.58
2022-09-01T16:19:17.892Z,22.55
2022-09-01T16:22:10.538Z,22.55
2022-09-01T16:24:46.371Z,22.50
2022-09-01T16:27:20.594Z,22.45
2022-09-01T16:29:55.122Z,22.38
2022-09-01T16:32:24.688Z,22.28
2022-09-01T16:34:52.340Z,22.26
2022-09-01T16:37:29.584Z,22.18
2022-09-01T16:40:10.225Z,22.07
2022-09-01T16:43:07.676Z,21.96
2022-09-01T16:45:59.480Z,21.84
2022-09-01T16:48:51.178Z,21.77
2022-09-01T16:51:27.768Z,21.71
2022-09-01T16:54:09.784Z,21.61
2022-09-01T16:56:49.295Z,21.50
2022-09-01T16:59:36.892Z,21.27
2022-09-01T17:02:17.302Z,21.21
2022-09-01T17:04:50.048Z,21.09
2022-09-01T17:07:29.689Z,21.02
2022-09-01T17:10:37.200Z,21.02
2022-09-01T17:13:16.450Z,20.87
2022-09-01T17:15:49.413Z,20.75
2022-09-01T17:18:30.335Z,20.59
2022-09-01T17:21:14.368Z,20.49
2022-09-01T17:24:12.493Z,20.33
2022-09-01T17:26:41.150Z,20.24
2022-09-01T17:29:25.448Z,20.16
2022-09-01T17:32:04.481Z,20.05
2022-09-01T17:34:39.307Z,19.89
2022-09-01T17:37:28.787Z,19.76
2022-09-01T17:40:15.791Z,19.75
2022-09-01T17:43:06.377Z,19.63
2022-09-01T17:45:54.453Z,19.54
2022-09-01T17:48:53.293Z,19.46
2022-09-01T17:51:53.873Z,19.31
2022-09-01T17:54:42.323Z,19.18
2022-09-01T17:57:33.914Z,19.08
2022-09-01T18:00:09.540Z,18.92
2022-09-01T18:02:58.536Z,18.49
2022-09-01T18:05:26.894Z,18.37
2022-09-01T18:08:24.831Z,18.38
2022-09-01T18:10:59.324Z,18.46
2022-09-01T18:13:54.196Z,18.40
2022-09-01T18:16:31.113Z,18.33
2022-09-01T18:19:05.657Z,18.41
2022-09-01T18:21:39.413Z,18.21
2022-09-01T18:24:15.193Z,18.06
2022-09-01T18:26:46.747Z,18.17
2022-09-01T18:29:13.746Z,18.15
2022-09-01T18:32:20.863Z,18.07
2022-09-01T18:35:22.525Z,18.17
2022-09-01T18:38:01.825Z,17.94
2022-09-01T18:40:50.393Z,17.73
2022-09-01T18:43:37.450Z,17.76
2022-09-01T18:46:25.745Z,17.75
2022-09-01T18:49:03.698Z,17.74
2022-09-01T18:51:58.414Z,17.61
2022-09-01T18:54:38.218Z,17.73
2022-09-01T18:57:07.023Z,17.76
2022-09-01T18:59:40.310Z,17.81
2022-09-01T19:02:31.805Z,17.81
2022-09-01T19:05:04.025Z,17.80
2022-09-01T19:07:34.497Z,17.84
2022-09-01T19:10:08.900Z,17.65
2022-09-01T19:12:56.928Z,17.58
2022-09-01T19:15:25.692Z,17.47
2022-09-01T19:17:55.247Z,17.56
2022-09-01T19:20:43.953Z,17.54
2022-09-01T19:23:12.292Z,17.41
2022-09-01T19:25:41.090Z,17.45
2022-09-01T19:28:37.204Z,17.41
2022-09-01T19:31:14.211Z,17.36
2022-09-01T19:33:44.092Z,17.51
2022-09-01T19:36:18.896Z,17.66
2022-09-01T19:38:45.931Z,17.65
2022-09-01T19:41:26.969Z,17.66
2022-09-01T19:44:02.715Z,17.59
2022-09-01T19:46:37.100Z,17.76
2022-09-01T19:49:23.236Z,17.84
2022-09-01T19:52:14.756Z,17.90
2022-09-01T19:54:54.277Z,17.89
2022-09-01T19:57:33.229Z,18.00
2022-09-01T20:00:12.362Z,18.04
2022-09-01T20:02:51.244Z,18.03
2022-09-01T20:05:32.153Z,18.05
2022-09-01T20:08:25.637Z,18.04
2022-09-01T20:11:07.693Z,18.04
2022-09-01T20:13:48.380Z,18.03
2022-09-01T20:16:30.827Z,18.06
2022-09-01T20:19:34.888Z,18.08
2022-09-01T20:22:24.673Z,18.12
2022-09-01T20:25:08.474Z,18.15
2022-09-01T20:27:56.154Z,18.09
2022-09-01T20:30:26.186Z,18.17
2022-09-01T20:33:05.427Z,18.12
2022-09-01T20:35:52.558Z,18.04
2022-09-01T20:39:22.612Z,18.10
2022-09-01T20:42:11.181Z,18.08
2022-09-01T20:44:44.328Z,18.08
2022-09-01T20:47:12.267Z,17.89
2022-09-01T20:49:39.601Z,17.93
2022-09-01T20:52:31.360Z,17.88
2022-09-01T20:55:17.301Z,17.88
2022-09-01T20:57:54.002Z,17.81
2022-09-01T21:00:25.798Z,17.79
2022-09-01T21:02:56.882Z,17.67
2022-09-01T21:05:34.088Z,17.72
2022-09-01T21:08:18.267Z,17.67
2022-09-01T21:10:51.892Z,17.70
2022-09-01T21:13:21.741Z,17.73
2022-09-01T21:16:00.212Z,17.76
2022-09-01T21:18:42.823Z,17.74
2022-09-01T21:21:37.971Z,17.76
2022-09-01T21:24:05.552Z,17.86
2022-09-01T21:26:34.610Z,17.88
2022-09-01T21:29:13.012Z,17.90
2022-09-01T21:31:39.890Z,17.92
2022-09-01T21:34:06.774Z,17.95
2022-09-01T21:36:33.628Z,17.97
2022-09-01T21:39:00.517Z,18.00
2022-09-01T21:41:27.457Z,17.97
2022-09-01T21:43:54.344Z,18.00
2022-09-01T21:46:21.232Z,18.03
2022-09-01T21:48:48.122Z,18.05
2022-09-01T21:51:14.960Z,18.08
2022-09-01T21:53:41.819Z,18.02
2022-09-01T21:56:08.722Z,18.02
2022-09-01T21:58:39.056Z,18.07
2022-09-01T22:01:07.544Z,18.13
2022-09-01T22:03:37.648Z,18.09
2022-09-01T22:06:05.693Z,18.03
2022-09-01T22:08:32.623Z,17.98
2022-09-01T22:11:00.607Z,17.98
2022-09-01T22:13:27.554Z,17.90
2022-09-01T22:15:54.843Z,17.89
2022-09-01T22:18:22.384Z,17.86
2022-09-01T22:20:49.466Z,17.77
2022-09-01T22:23:16.566Z,17.80
2022-09-01T22:25:46.086Z,17.71
2022-09-01T22:28:13.843Z,17.69
2022-09-01T22:30:48.097Z,17.62
2022-09-01T22:33:16.002Z,17.42
2022-09-01T22:35:44.913Z,17.33
2022-09-01T22:38:12.735Z,17.32
2022-09-01T22:40:50.379Z,17.19
2022-09-01T22:43:18.710Z,17.18
2022-09-01T22:45:47.304Z,17.02
2022-09-01T22:48:15.088Z,16.98
2022-09-01T22:50:43.576Z,16.79
2022-09-01T22:53:11.327Z,16.84
2022-09-01T22:55:39.723Z,16.82
2022-09-01T22:58:10.125Z,16.75
2022-09-01T23:00:37.660Z,16.67
2022-09-01T23:03:05.029Z,16.63
2022-09-01T23:05:32.069Z,16.66
2022-09-01T23:07:59.019Z,16.60
2022-09-01T23:10:30.603Z,16.55
2022-09-01T23:12:57.449Z,16.53
2022-09-01T23:15:24.337Z,16.51
2022-09-01T23:17:51.213Z,16.54
2022-09-01T23:20:18.315Z,16.52
2022-09-01T23:22:45.637Z,16.51
2022-09-01T23:25:14.058Z,16.48
2022-09-01T23:27:41.250Z,16.49
2022-09-01T23:30:11.401Z,16.49
2022-09-01T23:32:38.427Z,16.43
2022-09-01T23:35:05.585Z,16.44
2022-09-01T23:37:32.494Z,16.47
2022-09-01T23:39:59.364Z,16.46
2022-09-01T23:42:26.311Z,16.46
2022-09-01T23:44:53.221Z,16.44
2022-09-01T23:47:20.100Z,16.44
2022-09-01T23:49:46.927Z,16.44
2022-09-01T23:52:13.752Z,16.48
2022-09-01T23:54:40.618Z,16.50
2022-09-01T23:57:09.030Z,16.50
2022-09-01T23:59:35.887Z,16.54
